Time;durP1;ratioP1;P1;durP2;ratioP2;P2;SDS_P1;SDS_P2;PMS_P1;PMS_P2;Temp;Humidity;BMP_temperature;BMP_pressure;BME280_temperature;BME280_humidity;BME280_pressure;Samples;Min_cycle;Max_cycle;Signal;HPM_P1;HPM_P2
2022/12/15 00:39:33;;;;;;;144.48;37.50;;;-5.30;99.90;;;;;;5012478;28;20033;-58
2022/12/15 00:41:59;;;;;;;145.75;37.83;;;-5.40;99.90;;;;;;5013225;28;20026;-57
2022/12/15 00:44:25;;;;;;;142.00;40.10;;;-5.40;99.90;;;;;;5013056;28;20038;-57
2022/12/15 00:46:53;;;;;;;182.63;41.53;;;-5.40;99.90;;;;;;5013086;28;20044;-58
2022/12/15 01:22:40;;;;;;;123.32;40.55;;;-5.30;99.90;;;;;;5009386;28;20026;-56
2022/12/15 01:25:07;;;;;;;252.90;44.08;;;-5.20;99.90;;;;;;5009427;28;20032;-57
2022/12/15 01:27:34;;;;;;;269.92;40.30;;;-5.20;99.90;;;;;;5010243;28;20446;-57
2022/12/15 01:30:00;;;;;;;231.55;41.53;;;-5.20;99.90;;;;;;5009759;28;20026;-57
2022/12/15 01:32:26;;;;;;;154.73;40.38;;;-5.20;99.90;;;;;;5010030;28;20033;-57
2022/12/15 01:34:52;;;;;;;152.18;39.78;;;-5.20;99.90;;;;;;5009018;28;20116;-56
2022/12/15 01:37:18;;;;;;;120.07;35.13;;;-5.20;99.90;;;;;;5008372;28;20100;-57
2022/12/15 01:42:28;;;;;;;103.95;33.17;;;-5.20;99.90;;;;;;5009084;28;20165;-57
2022/12/15 01:45:22;;;;;;;95.63;34.10;;;-5.10;99.90;;;;;;5009079;28;20124;-57
2022/12/15 01:47:52;;;;;;;129.82;35.83;;;-5.10;99.90;;;;;;5008115;28;20038;-56
2022/12/15 01:50:18;;;;;;;101.70;34.88;;;-5.10;99.90;;;;;;5007835;28;20084;-57
2022/12/15 01:52:46;;;;;;;94.50;31.85;;;-5.10;99.90;;;;;;5008296;28;20034;-57
2022/12/15 01:55:12;;;;;;;93.18;32.47;;;-5.10;99.90;;;;;;5009229;28;20045;-57
2022/12/15 01:57:38;;;;;;;184.63;34.83;;;-5.10;99.90;;;;;;4995097;28;20746;-56
2022/12/15 02:00:07;;;;;;;154.60;35.03;;;-5.10;99.90;;;;;;4993949;28;20096;-56
2022/12/15 02:02:35;;;;;;;183.27;41.35;;;-5.20;99.90;;;;;;5009127;28;20874;-58
2022/12/15 02:05:02;;;;;;;208.35;42.05;;;-5.30;99.90;;;;;;5006666;28;20034;-57
2022/12/15 02:07:28;;;;;;;232.13;42.75;;;-5.40;99.90;;;;;;5008524;28;20076;-56
2022/12/15 02:09:56;;;;;;;277.15;48.53;;;-5.50;99.90;;;;;;5008869;28;20026;-57
2022/12/15 02:12:44;;;;;;;201.50;44.10;;;-5.50;99.90;;;;;;5007206;28;20470;-57
2022/12/15 02:15:38;;;;;;;254.57;45.88;;;-5.50;99.90;;;;;;5008141;28;20518;-56
2022/12/15 02:18:13;;;;;;;205.27;39.42;;;-5.50;99.90;;;;;;5007521;28;20045;-58
2022/12/15 02:20:49;;;;;;;259.73;42.10;;;-5.50;99.90;;;;;;5008651;28;20032;-57
2022/12/15 02:23:35;;;;;;;278.55;42.72;;;-5.40;99.90;;;;;;5008702;28;20072;-57
2022/12/15 02:26:37;;;;;;;260.42;43.95;;;-5.40;99.90;;;;;;5008724;28;20040;-57
2022/12/15 02:29:36;;;;;;;257.75;42.35;;;-5.40;99.90;;;;;;5008257;28;20030;-56
2022/12/15 02:32:31;;;;;;;206.57;42.50;;;-5.40;99.90;;;;;;5007116;28;20048;-57
2022/12/15 02:35:02;;;;;;;235.65;43.83;;;-5.30;99.90;;;;;;5004147;28;20057;-55
2022/12/15 02:37:35;;;;;;;127.72;37.70;;;-5.30;99.90;;;;;;5007624;28;20026;-57
2022/12/15 02:40:01;;;;;;;121.43;39.28;;;-5.20;99.90;;;;;;5008882;28;20622;-57
2022/12/15 02:42:31;;;;;;;129.65;37.60;;;-5.20;99.90;;;;;;4984685;28;20025;-57
2022/12/15 02:45:01;;;;;;;155.65;38.20;;;-5.20;99.90;;;;;;5007532;28;20038;-57
2022/12/15 02:47:38;;;;;;;143.98;38.75;;;-5.20;99.90;;;;;;5008596;28;20398;-57
2022/12/15 02:50:12;;;;;;;135.57;39.22;;;-5.10;99.90;;;;;;5007932;28;20038;-56
2022/12/15 02:53:15;;;;;;;152.93;38.92;;;-5.10;99.90;;;;;;4987668;28;20029;-57
2022/12/15 02:55:58;;;;;;;162.88;39.70;;;-5.10;99.90;;;;;;5007646;28;20041;-56
2022/12/15 02:59:00;;;;;;;137.73;37.97;;;-5.10;99.90;;;;;;5008285;28;20120;-56
2022/12/15 03:01:47;;;;;;;116.35;34.35;;;-5.10;99.90;;;;;;5006621;28;20034;-58
2022/12/15 03:04:12;;;;;;;119.80;34.38;;;-5.10;99.90;;;;;;5008125;28;20567;-57
2022/12/15 03:06:38;;;;;;;124.45;35.28;;;-5.10;99.90;;;;;;5007416;28;20101;-56
2022/12/15 03:09:04;;;;;;;115.47;34.88;;;-5.00;99.90;;;;;;5007735;28;20034;-56
2022/12/15 03:11:30;;;;;;;121.05;34.83;;;-5.00;99.90;;;;;;5008094;28;20041;-58
2022/12/15 03:13:55;;;;;;;134.50;38.30;;;-5.00;99.90;;;;;;4978391;28;20046;-57
2022/12/15 03:16:21;;;;;;;141.98;40.67;;;-4.90;99.90;;;;;;5007976;28;20557;-57
2022/12/15 03:18:47;;;;;;;113.13;35.30;;;-5.00;99.90;;;;;;5008556;28;20084;-57
2022/12/15 03:21:13;;;;;;;126.72;37.38;;;-5.00;99.90;;;;;;5007245;28;20398;-58
2022/12/15 03:23:38;;;;;;;119.30;35.97;;;-5.00;99.90;;;;;;5008150;28;20030;-57
2022/12/15 03:26:05;;;;;;;109.15;34.75;;;-5.00;99.90;;;;;;5007243;28;20113;-57
2022/12/15 03:28:32;;;;;;;119.60;37.88;;;-5.00;99.90;;;;;;5007104;28;20752;-57
2022/12/15 03:30:57;;;;;;;123.80;35.60;;;-5.00;99.90;;;;;;5007889;28;20024;-57
2022/12/15 03:33:23;;;;;;;114.80;35.50;;;-5.00;99.90;;;;;;5007695;28;20026;-57
2022/12/15 03:35:50;;;;;;;120.05;35.30;;;-5.10;99.90;;;;;;5007486;28;20038;-57
2022/12/15 03:38:15;;;;;;;150.90;43.88;;;-5.00;99.90;;;;;;5006646;28;20510;-58
2022/12/15 03:40:41;;;;;;;135.30;40.45;;;-5.10;99.90;;;;;;5007854;28;20050;-56
2022/12/15 03:43:07;;;;;;;113.75;38.83;;;-5.10;99.90;;;;;;4998057;28;20026;-57
2022/12/15 03:45:33;;;;;;;107.15;39.75;;;-5.10;99.90;;;;;;5007449;28;20034;-58
2022/12/15 03:47:58;;;;;;;103.90;39.08;;;-5.10;99.90;;;;;;5007746;28;20033;-58
2022/12/15 03:50:26;;;;;;;119.47;38.53;;;-5.20;99.90;;;;;;5004336;28;20029;-58
2022/12/15 03:52:53;;;;;;;106.70;37.33;;;-5.20;99.90;;;;;;5006611;28;20034;-58
2022/12/15 03:55:21;;;;;;;117.82;40.25;;;-5.20;99.90;;;;;;5006320;28;20045;-56
2022/12/15 03:57:47;;;;;;;99.97;34.88;;;-5.20;99.90;;;;;;5006833;28;20498;-57
2022/12/15 04:00:13;;;;;;;90.25;33.58;;;-5.20;99.90;;;;;;5005165;28;20034;-57
2022/12/15 04:02:40;;;;;;;102.45;37.60;;;-5.20;99.90;;;;;;5007449;28;20030;-56
2022/12/15 04:05:06;;;;;;;96.40;36.42;;;-5.20;99.90;;;;;;5008303;28;20065;-57
2022/12/15 04:07:32;;;;;;;114.20;41.95;;;-5.30;99.90;;;;;;5007788;28;20014;-56
2022/12/15 04:09:58;;;;;;;80.15;32.20;;;-5.30;99.90;;;;;;5006604;28;20486;-58
2022/12/15 04:12:23;;;;;;;78.55;31.25;;;-5.30;99.90;;;;;;5007723;28;20170;-58
2022/12/15 04:14:49;;;;;;;78.53;32.30;;;-5.30;99.90;;;;;;5007324;28;20441;-58
2022/12/15 04:17:14;;;;;;;72.22;30.30;;;-5.30;99.90;;;;;;5006985;28;20041;-58
2022/12/15 04:22:24;;;;;;;68.97;27.27;;;-5.40;99.90;;;;;;5005306;28;20473;-58
2022/12/15 05:33:27;;;;;;;108.60;35.55;;;-5.60;99.90;;;;;;5008186;28;20032;-57
2022/12/15 05:35:56;;;;;;;90.10;31.70;;;-5.60;99.90;;;;;;5008884;28;20509;-57
2022/12/15 05:38:22;;;;;;;114.32;35.47;;;-5.50;99.90;;;;;;5008692;28;20057;-57
2022/12/15 05:40:47;;;;;;;91.18;30.67;;;-5.60;99.90;;;;;;5009496;28;20065;-58
2022/12/15 05:43:13;;;;;;;81.90;31.60;;;-5.60;99.90;;;;;;5009184;28;20083;-58
2022/12/15 05:45:38;;;;;;;91.43;29.80;;;-5.60;99.90;;;;;;5008991;28;20033;-56
2022/12/15 05:48:04;;;;;;;88.88;28.25;;;-5.70;99.90;;;;;;5009197;28;20065;-58
2022/12/15 05:50:30;;;;;;;95.32;31.40;;;-5.70;99.90;;;;;;5008869;28;20121;-56
2022/12/15 05:52:57;;;;;;;88.10;29.83;;;-5.70;99.90;;;;;;5001437;28;20117;-57
2022/12/15 05:55:23;;;;;;;93.28;32.03;;;-5.70;99.90;;;;;;5008423;28;20038;-57
2022/12/15 05:57:52;;;;;;;86.28;29.73;;;-5.70;99.90;;;;;;5009598;28;20072;-57
2022/12/15 06:00:19;;;;;;;97.40;30.38;;;-5.70;99.90;;;;;;5009187;28;20040;-57
2022/12/15 06:02:45;;;;;;;79.18;29.55;;;-5.70;99.90;;;;;;5009008;28;20053;-56
2022/12/15 06:05:10;;;;;;;96.55;31.42;;;-5.70;99.90;;;;;;5008968;28;20038;-58
2022/12/15 06:07:36;;;;;;;85.90;30.25;;;-5.70;99.90;;;;;;5008465;28;20104;-57
2022/12/15 06:10:02;;;;;;;91.63;29.75;;;-5.60;99.90;;;;;;5009238;28;20076;-57
2022/12/15 06:12:28;;;;;;;84.55;32.00;;;-5.70;99.90;;;;;;5008257;28;20022;-57
2022/12/15 06:14:54;;;;;;;94.68;34.47;;;-5.70;99.90;;;;;;5007746;28;20038;-57
2022/12/15 06:17:19;;;;;;;95.78;32.40;;;-5.70;99.90;;;;;;5008972;28;20033;-58
2022/12/15 06:19:45;;;;;;;96.70;33.55;;;-5.70;99.90;;;;;;5008096;28;20391;-58
2022/12/15 06:22:11;;;;;;;93.03;33.63;;;-5.70;99.90;;;;;;5007653;28;20026;-57
2022/12/15 06:24:37;;;;;;;92.88;32.88;;;-5.70;99.90;;;;;;5008518;28;20056;-58
2022/12/15 06:27:03;;;;;;;83.93;30.42;;;-5.70;99.90;;;;;;5007346;28;20038;-58
2022/12/15 06:29:28;;;;;;;91.88;31.58;;;-5.70;99.90;;;;;;5008587;28;20053;-57
2022/12/15 06:31:54;;;;;;;88.13;32.67;;;-5.70;99.90;;;;;;5007510;28;20088;-57
2022/12/15 06:34:20;;;;;;;80.20;29.70;;;-5.70;99.90;;;;;;5008268;28;20125;-57
2022/12/15 06:36:46;;;;;;;77.22;29.85;;;-5.80;99.90;;;;;;5008994;28;20066;-56
2022/12/15 06:39:14;;;;;;;70.72;28.30;;;-5.80;99.90;;;;;;5007421;28;20096;-59
2022/12/15 06:41:40;;;;;;;77.53;27.88;;;-5.90;99.90;;;;;;5008435;28;20022;-58
2022/12/15 06:44:05;;;;;;;80.95;29.65;;;-5.90;99.90;;;;;;5008190;28;20640;-57
2022/12/15 06:46:33;;;;;;;84.00;30.58;;;-5.90;99.90;;;;;;5008041;28;20033;-58
2022/12/15 06:48:59;;;;;;;83.35;33.35;;;-5.90;99.90;;;;;;5007443;28;20018;-58
2022/12/15 06:51:26;;;;;;;88.88;30.85;;;-5.90;99.90;;;;;;5008462;28;20056;-58
2022/12/15 06:53:55;;;;;;;75.93;29.52;;;-5.90;99.90;;;;;;5008276;28;20034;-56
2022/12/15 06:56:22;;;;;;;80.85;30.65;;;-5.90;99.90;;;;;;5007318;28;20034;-59
2022/12/15 06:58:49;;;;;;;72.93;27.17;;;-5.90;99.90;;;;;;5007815;28;20064;-57
2022/12/15 07:01:15;;;;;;;73.95;27.83;;;-5.90;99.90;;;;;;5008270;28;20029;-58
2022/12/15 07:03:41;;;;;;;85.70;27.95;;;-6.00;99.90;;;;;;4999169;28;20025;-57
2022/12/15 07:06:09;;;;;;;81.05;29.15;;;-6.00;99.90;;;;;;5007911;28;20037;-57
2022/12/15 07:08:35;;;;;;;90.47;30.48;;;-6.00;99.90;;;;;;5007295;28;20041;-58
2022/12/15 07:11:10;;;;;;;94.10;28.27;;;-6.10;99.90;;;;;;5006902;28;20402;-58
2022/12/15 07:13:36;;;;;;;82.20;28.92;;;-6.10;99.90;;;;;;5007610;28;20116;-58
2022/12/15 07:16:04;;;;;;;94.85;29.40;;;-6.10;99.90;;;;;;5007329;28;20522;-57
2022/12/15 07:18:30;;;;;;;80.28;28.13;;;-6.10;99.90;;;;;;5007181;28;20026;-58
2022/12/15 07:21:05;;;;;;;99.90;31.67;;;-6.10;99.90;;;;;;5007361;28;20042;-57
2022/12/15 07:23:32;;;;;;;91.68;30.88;;;-6.00;99.90;;;;;;5006833;28;20080;-58
2022/12/15 07:25:58;;;;;;;91.70;30.15;;;-6.00;99.90;;;;;;5007494;28;20027;-57
2022/12/15 07:28:23;;;;;;;89.22;30.63;;;-5.90;99.90;;;;;;5006542;28;20030;-58
2022/12/15 07:30:49;;;;;;;99.43;31.50;;;-5.80;99.90;;;;;;5008414;28;20049;-58
2022/12/15 07:33:15;;;;;;;88.18;30.20;;;-5.80;99.90;;;;;;5006377;28;20022;-56
2022/12/15 07:35:41;;;;;;;94.70;29.65;;;-5.80;99.90;;;;;;5007892;28;20065;-58
2022/12/15 07:38:07;;;;;;;88.93;29.75;;;-5.70;99.90;;;;;;5007413;28;20037;-57
2022/12/15 07:40:33;;;;;;;82.78;30.05;;;-5.70;99.90;;;;;;5006144;28;20046;-56
2022/12/15 07:42:59;;;;;;;82.47;29.25;;;-5.70;99.90;;;;;;5007752;28;20026;-58
2022/12/15 07:45:25;;;;;;;80.13;28.75;;;-5.70;99.90;;;;;;5005295;28;20034;-57
2022/12/15 07:47:52;;;;;;;82.55;28.80;;;-5.60;99.90;;;;;;5007524;28;20502;-57
2022/12/15 07:50:18;;;;;;;97.50;31.85;;;-5.50;99.90;;;;;;5007177;28;20101;-58
2022/12/15 07:52:44;;;;;;;76.65;28.17;;;-5.30;99.90;;;;;;5007178;28;20184;-58
2022/12/15 07:55:10;;;;;;;90.18;31.50;;;-5.30;99.90;;;;;;5007164;28;20054;-58
2022/12/15 07:57:36;;;;;;;86.85;28.98;;;-5.20;99.90;;;;;;5007128;28;20029;-59
2022/12/15 08:00:04;;;;;;;81.65;28.77;;;-5.10;99.90;;;;;;5009690;28;20077;-57
2022/12/15 08:02:30;;;;;;;92.82;31.55;;;-5.10;99.90;;;;;;4995429;28;20124;-57
2022/12/15 08:04:55;;;;;;;93.10;32.58;;;-4.90;99.90;;;;;;5010906;28;20665;-58
2022/12/15 08:07:21;;;;;;;96.15;32.17;;;-4.90;99.90;;;;;;5016536;28;20040;-57
2022/12/15 08:09:47;;;;;;;98.13;32.17;;;-4.80;99.90;;;;;;5010611;28;20034;-57
2022/12/15 08:12:12;;;;;;;91.03;31.30;;;-4.70;99.90;;;;;;5011327;28;20161;-58
2022/12/15 08:14:38;;;;;;;93.32;33.58;;;-4.70;99.90;;;;;;5009921;28;20117;-58
2022/12/15 08:17:04;;;;;;;89.57;31.85;;;-4.60;99.90;;;;;;5008909;28;20038;-58
2022/12/15 08:19:30;;;;;;;82.32;30.60;;;-4.50;99.90;;;;;;5010511;28;20022;-57
2022/12/15 08:21:55;;;;;;;93.28;32.08;;;-4.40;99.90;;;;;;4995335;28;20654;-56
2022/12/15 08:24:21;;;;;;;78.75;29.42;;;-4.30;99.90;;;;;;5010513;28;20053;-57
2022/12/15 08:26:47;;;;;;;86.68;30.33;;;-4.30;99.90;;;;;;5010330;28;20037;-58
2022/12/15 08:29:13;;;;;;;80.78;29.80;;;-4.30;99.90;;;;;;5010500;28;20057;-58
2022/12/15 08:31:40;;;;;;;71.57;28.60;;;-4.30;99.90;;;;;;5010067;28;20092;-58
2022/12/15 08:34:06;;;;;;;82.47;29.52;;;-4.10;99.90;;;;;;5009730;28;20234;-58
2022/12/15 08:36:32;;;;;;;89.80;31.60;;;-4.10;99.90;;;;;;4995134;28;20091;-57
2022/12/15 08:38:59;;;;;;;87.60;31.45;;;-4.20;99.90;;;;;;5008282;28;20042;-58
2022/12/15 08:41:31;;;;;;;88.75;30.92;;;-4.30;99.90;;;;;;5010083;28;20099;-56
2022/12/15 08:43:58;;;;;;;86.63;30.42;;;-4.20;99.90;;;;;;5009331;28;20030;-56
2022/12/15 08:46:29;;;;;;;95.22;31.17;;;-4.30;99.90;;;;;;5008544;28;20030;-56
2022/12/15 08:48:55;;;;;;;88.78;31.17;;;-4.30;99.90;;;;;;5009409;28;20095;-58
2022/12/15 08:51:22;;;;;;;88.25;34.17;;;-4.30;99.90;;;;;;5009591;28;20994;-57
2022/12/15 08:53:48;;;;;;;90.97;31.20;;;-4.10;99.90;;;;;;5009120;28;20037;-58
2022/12/15 08:56:18;;;;;;;92.22;32.03;;;-4.00;99.90;;;;;;5008753;28;20046;-57
2022/12/15 08:58:45;;;;;;;83.35;29.35;;;-3.90;99.90;;;;;;5009311;28;20018;-58
2022/12/15 09:01:13;;;;;;;69.45;27.05;;;-3.80;99.90;;;;;;5009059;28;20168;-58
2022/12/15 09:03:39;;;;;;;78.30;28.23;;;-3.60;99.90;;;;;;5009249;28;20561;-61
2022/12/15 09:06:07;;;;;;;87.68;30.30;;;-3.50;99.90;;;;;;5009926;28;20160;-57
2022/12/15 09:08:34;;;;;;;71.15;27.85;;;-3.40;99.90;;;;;;5008644;28;20508;-58
2022/12/15 09:11:00;;;;;;;77.55;27.70;;;-3.40;99.90;;;;;;5007289;28;20042;-59
2022/12/15 09:13:27;;;;;;;71.03;27.08;;;-3.40;99.90;;;;;;5009504;28;20034;-58
2022/12/15 09:16:06;;;;;;;83.72;28.33;;;-3.40;99.90;;;;;;5008795;28;20096;-58
2022/12/15 09:18:33;;;;;;;75.32;27.67;;;-3.40;99.90;;;;;;4993345;28;20010;-58
2022/12/15 09:21:07;;;;;;;68.50;26.75;;;-3.40;99.90;;;;;;5009042;28;20045;-58
2022/12/15 09:23:33;;;;;;;73.22;28.40;;;-3.40;99.90;;;;;;5009929;28;20140;-58
2022/12/15 09:26:11;;;;;;;75.53;27.80;;;-3.50;99.90;;;;;;5009123;28;20033;-58
2022/12/15 09:28:38;;;;;;;74.18;28.23;;;-3.50;99.90;;;;;;5009810;28;20062;-59
2022/12/15 09:31:04;;;;;;;75.72;27.20;;;-3.40;99.90;;;;;;5008218;28;20034;-58
2022/12/15 09:33:30;;;;;;;73.15;26.73;;;-3.30;99.90;;;;;;5009977;28;20037;-58
2022/12/15 09:35:56;;;;;;;77.03;29.75;;;-3.20;99.90;;;;;;5008504;28;20061;-58
2022/12/15 09:38:21;;;;;;;74.05;29.25;;;-3.20;99.90;;;;;;5008468;28;20062;-58
2022/12/15 09:40:48;;;;;;;88.68;28.17;;;-3.00;99.90;;;;;;5009519;28;20528;-59
2022/12/15 09:43:25;;;;;;;78.97;29.08;;;-3.00;99.90;;;;;;5008676;28;20037;-58
2022/12/15 09:45:59;;;;;;;83.72;29.92;;;-3.00;99.90;;;;;;5007356;28;20018;-58
2022/12/15 09:48:35;;;;;;;70.25;26.00;;;-3.00;99.90;;;;;;5010139;28;20021;-57
2022/12/15 09:51:03;;;;;;;75.88;27.08;;;-2.90;99.90;;;;;;5008575;28;20026;-57
2022/12/15 09:53:30;;;;;;;82.25;31.42;;;-2.90;99.90;;;;;;5009826;28;20025;-59
2022/12/15 09:56:03;;;;;;;80.65;30.02;;;-2.90;99.90;;;;;;5009243;28;20116;-57
2022/12/15 09:59:04;;;;;;;77.90;27.98;;;-2.90;99.90;;;;;;5008811;28;20113;-58
2022/12/15 10:01:48;;;;;;;69.82;26.65;;;-2.90;99.90;;;;;;5008935;28;20181;-58
2022/12/15 10:04:32;;;;;;;69.32;26.30;;;-3.10;99.90;;;;;;5009323;28;20036;-56
2022/12/15 10:07:23;;;;;;;71.97;26.98;;;-3.20;99.90;;;;;;5009156;28;20029;-59
2022/12/15 10:09:48;;;;;;;71.05;28.25;;;-3.30;99.90;;;;;;5009505;28;20026;-58
2022/12/15 10:12:24;;;;;;;95.53;29.45;;;-3.20;99.90;;;;;;5009219;28;20018;-58
2022/12/15 10:15:17;;;;;;;75.40;29.02;;;-3.10;99.90;;;;;;5008078;28;20386;-58
2022/12/15 10:18:00;;;;;;;75.32;27.63;;;-3.10;99.90;;;;;;5007992;28;20358;-57
2022/12/15 10:20:30;;;;;;;74.93;27.83;;;-3.00;99.90;;;;;;5007290;28;20478;-59
2022/12/15 10:23:11;;;;;;;63.95;28.48;;;-2.80;99.90;;;;;;5009070;28;20084;-57
2022/12/15 10:25:37;;;;;;;76.22;28.75;;;-2.50;99.90;;;;;;5008531;28;20025;-59
2022/12/15 10:28:15;;;;;;;74.88;27.50;;;-2.40;99.90;;;;;;5007822;28;20022;-58
2022/12/15 10:30:57;;;;;;;70.43;28.27;;;-2.30;99.90;;;;;;5009624;28;20026;-58
2022/12/15 10:33:34;;;;;;;72.90;26.02;;;-2.20;99.90;;;;;;5008591;28;20091;-58
2022/12/15 10:36:00;;;;;;;72.13;27.10;;;-2.20;99.90;;;;;;5008493;28;20084;-57
2022/12/15 10:38:44;;;;;;;89.57;31.13;;;-2.30;99.90;;;;;;5008380;28;20041;-58
2022/12/15 10:41:19;;;;;;;94.63;26.20;;;-2.40;99.90;;;;;;5008896;28;20036;-57
2022/12/15 10:43:48;;;;;;;76.97;27.25;;;-2.50;99.90;;;;;;5008638;28;20137;-59
2022/12/15 10:46:21;;;;;;;77.72;28.35;;;-2.60;99.90;;;;;;5007741;28;20029;-56
2022/12/15 10:48:52;;;;;;;82.35;29.17;;;-2.50;99.90;;;;;;5015088;28;20482;-57
2022/12/15 10:51:45;;;;;;;80.43;30.23;;;-2.20;99.90;;;;;;5009171;28;20030;-61
2022/12/15 10:54:13;;;;;;;77.45;30.75;;;-2.00;99.90;;;;;;5008740;28;20030;-58
2022/12/15 10:56:51;;;;;;;98.95;33.85;;;-1.90;99.90;;;;;;5006251;28;20669;-59
2022/12/15 10:59:33;;;;;;;84.28;30.90;;;-1.80;99.90;;;;;;5006415;28;20030;-60
2022/12/15 11:02:20;;;;;;;94.35;30.10;;;-2.00;99.90;;;;;;5007634;28;20073;-57
2022/12/15 11:05:04;;;;;;;87.70;29.08;;;-2.30;99.90;;;;;;5007564;28;20048;-59
2022/12/15 11:07:39;;;;;;;98.10;30.40;;;-2.30;99.90;;;;;;5006852;28;20038;-59
2022/12/15 11:10:26;;;;;;;106.22;28.02;;;-2.30;99.90;;;;;;5007203;28;20033;-59
2022/12/15 11:13:07;;;;;;;72.18;26.67;;;-2.40;99.90;;;;;;5007714;28;20021;-62
2022/12/15 11:15:55;;;;;;;73.03;28.73;;;-2.50;99.90;;;;;;5006885;28;20487;-58
2022/12/15 11:18:23;;;;;;;101.18;27.05;;;-2.60;99.90;;;;;;5007346;28;20057;-59
2022/12/15 11:21:03;;;;;;;90.80;30.35;;;-2.80;99.90;;;;;;5007370;28;20033;-59
2022/12/15 11:23:44;;;;;;;84.65;29.83;;;-3.00;99.90;;;;;;5006905;28;20030;-59
2022/12/15 11:26:25;;;;;;;144.30;32.10;;;-3.20;99.90;;;;;;5007086;28;20740;-57
2022/12/15 11:29:14;;;;;;;76.93;27.42;;;-3.20;99.90;;;;;;5005678;28;20030;-60
2022/12/15 11:31:42;;;;;;;78.03;26.27;;;-3.10;99.90;;;;;;5006188;28;20040;-58
2022/12/15 11:34:16;;;;;;;73.53;28.02;;;-2.90;99.90;;;;;;5005898;28;20111;-59
2022/12/15 11:37:03;;;;;;;130.32;35.22;;;-2.80;99.90;;;;;;5006882;28;20387;-57
2022/12/15 11:39:50;;;;;;;300.65;39.75;;;-2.80;99.90;;;;;;5007530;28;20095;-57
2022/12/15 11:42:38;;;;;;;109.88;33.85;;;-2.80;99.90;;;;;;5008029;28;20109;-58
2022/12/15 11:45:37;;;;;;;94.68;34.25;;;-2.80;99.90;;;;;;5005093;28;20066;-58
2022/12/15 11:48:16;;;;;;;104.13;32.58;;;-2.90;99.90;;;;;;5008050;28;20104;-57
2022/12/15 11:50:52;;;;;;;87.22;33.15;;;-2.80;99.90;;;;;;5007030;28;20026;-59
2022/12/15 11:53:30;;;;;;;138.27;34.13;;;-2.90;99.90;;;;;;5008000;28;20593;-57
2022/12/15 11:56:17;;;;;;;86.20;31.45;;;-3.00;99.90;;;;;;5007780;28;20397;-58
2022/12/15 11:59:20;;;;;;;94.15;30.85;;;-3.10;99.90;;;;;;5007324;28;20111;-58
2022/12/15 12:02:41;;;;;;;92.95;31.63;;;-3.20;99.90;;;;;;5008061;28;20055;-57
2022/12/15 12:05:27;;;;;;;72.53;28.48;;;-3.20;99.90;;;;;;4968243;28;20037;-57
2022/12/15 12:08:02;;;;;;;99.80;29.55;;;-3.10;99.90;;;;;;5006645;28;20498;-60
2022/12/15 12:10:53;;;;;;;115.28;30.40;;;-2.80;99.90;;;;;;5007583;28;20092;-57
2022/12/15 12:13:47;;;;;;;77.00;27.60;;;-2.70;99.90;;;;;;4999208;28;20049;-57
2022/12/15 12:16:34;;;;;;;75.05;29.38;;;-2.60;99.90;;;;;;5005991;28;20563;-58
2022/12/15 12:19:16;;;;;;;74.57;28.60;;;-2.50;99.90;;;;;;5004853;28;20489;-59
2022/12/15 12:21:45;;;;;;;84.82;29.70;;;-2.30;99.90;;;;;;5005727;28;20030;-57
2022/12/15 12:24:22;;;;;;;83.05;29.38;;;-2.10;99.90;;;;;;5007783;28;20050;-58
2022/12/15 12:27:11;;;;;;;106.00;28.10;;;-2.00;99.90;;;;;;5006404;28;20038;-60
2022/12/15 12:29:45;;;;;;;75.28;28.63;;;-1.80;99.90;;;;;;5007473;28;20030;-58
2022/12/15 12:32:29;;;;;;;95.20;30.63;;;-1.60;99.90;;;;;;5007167;28;20037;-58
2022/12/15 12:35:14;;;;;;;75.28;30.42;;;-1.60;99.90;;;;;;5006307;28;20033;-59
2022/12/15 12:37:43;;;;;;;118.10;30.63;;;-1.70;99.90;;;;;;5006639;28;20406;-58
2022/12/15 12:40:26;;;;;;;82.30;29.50;;;-1.80;99.90;;;;;;5006333;28;20018;-59
2022/12/15 12:42:55;;;;;;;75.57;28.40;;;-1.90;99.90;;;;;;5007135;28;20072;-59
2022/12/15 12:45:31;;;;;;;123.65;30.20;;;-2.00;99.90;;;;;;5007405;28;20061;-59
2022/12/15 12:48:01;;;;;;;98.10;29.75;;;-2.00;99.90;;;;;;5010233;28;20089;-57
2022/12/15 12:50:28;;;;;;;68.88;27.73;;;-1.90;99.90;;;;;;5010092;28;20399;-58
2022/12/15 12:52:57;;;;;;;94.28;28.75;;;-2.00;99.90;;;;;;5010575;28;20084;-60
2022/12/15 12:55:41;;;;;;;122.63;42.17;;;-2.00;99.90;;;;;;5010347;28;20099;-58
2022/12/15 12:58:32;;;;;;;76.50;27.75;;;-2.10;99.90;;;;;;5008776;28;20386;-58
2022/12/15 13:01:10;;;;;;;109.03;30.83;;;-2.20;99.90;;;;;;5009325;28;20509;-58
2022/12/15 13:03:41;;;;;;;112.38;38.60;;;-2.20;99.90;;;;;;5010870;28;20386;-58
2022/12/15 13:06:36;;;;;;;;;;;-2.30;99.90;;;;;;5009349;28;20045;-58
2022/12/15 13:09:16;;;;;;;95.72;31.63;;;-2.40;99.90;;;;;;4935784;28;19957;-58
2022/12/15 13:11:51;;;;;;;82.97;28.83;;;-2.70;99.90;;;;;;5009102;28;20032;-57
2022/12/15 13:14:27;;;;;;;81.90;29.55;;;-2.90;99.90;;;;;;5010577;28;20037;-58
2022/12/15 13:17:22;;;;;;;86.55;27.10;;;-3.10;99.90;;;;;;4992295;28;20530;-59
2022/12/15 13:19:59;;;;;;;196.32;33.33;;;-3.20;99.90;;;;;;4999189;28;20034;-58
2022/12/15 13:22:36;;;;;;;154.93;33.25;;;-3.40;99.90;;;;;;5009509;28;20065;-58
2022/12/15 13:25:21;;;;;;;106.22;29.88;;;-3.50;99.90;;;;;;5009690;28;20026;-59
2022/12/15 13:27:52;;;;;;;95.57;29.00;;;-3.60;99.90;;;;;;5008971;28;20034;-57
2022/12/15 13:30:18;;;;;;;189.83;33.23;;;-3.60;99.90;;;;;;5010478;28;20457;-57
2022/12/15 13:32:46;;;;;;;190.23;35.92;;;-3.70;99.90;;;;;;5009779;28;20398;-59
2022/12/15 13:35:11;;;;;;;369.27;38.55;;;-3.80;99.90;;;;;;5009500;28;20053;-57
2022/12/15 13:37:49;;;;;;;120.65;30.25;;;-3.80;99.90;;;;;;5009260;28;20033;-58
2022/12/15 13:40:35;;;;;;;119.80;32.08;;;-3.90;99.90;;;;;;5009456;28;20085;-58
2022/12/15 13:43:03;;;;;;;186.13;40.83;;;-3.90;99.90;;;;;;5008367;28;20018;-57
2022/12/15 13:45:52;;;;;;;150.57;33.90;;;-3.90;99.90;;;;;;5014736;28;20026;-59
2022/12/15 13:48:26;;;;;;;115.78;34.45;;;-4.00;99.90;;;;;;5011478;28;20052;-57
2022/12/15 13:50:59;;;;;;;128.73;32.28;;;-4.00;99.90;;;;;;5007931;28;20181;-59
2022/12/15 13:53:27;;;;;;;153.05;34.92;;;-4.00;99.90;;;;;;5009995;28;20510;-56
2022/12/15 13:55:59;;;;;;;183.68;33.33;;;-4.10;99.90;;;;;;5008938;28;20038;-59
2022/12/15 13:58:29;;;;;;;235.93;34.28;;;-4.30;99.90;;;;;;5008427;28;20022;-58
2022/12/15 14:00:57;;;;;;;103.97;32.38;;;-4.30;99.90;;;;;;5008078;28;20033;-58
2022/12/15 14:03:23;;;;;;;114.72;35.90;;;-4.30;99.90;;;;;;5009379;28;20041;-58
2022/12/15 14:05:57;;;;;;;92.38;33.63;;;-4.20;99.90;;;;;;5008637;28;20036;-58
2022/12/15 14:08:25;;;;;;;98.55;32.47;;;-4.10;99.90;;;;;;5008531;28;20079;-58
2022/12/15 14:11:00;;;;;;;172.20;34.10;;;-4.00;99.90;;;;;;5008649;28;20022;-59
2022/12/15 14:13:29;;;;;;;171.45;37.92;;;-3.90;99.90;;;;;;5008318;28;20496;-58
2022/12/15 14:16:01;;;;;;;121.03;33.13;;;-3.90;99.90;;;;;;5009994;28;20033;-57
2022/12/15 14:18:35;;;;;;;201.05;35.75;;;-3.90;99.90;;;;;;5009566;28;20022;-57
2022/12/15 14:21:05;;;;;;;284.65;38.15;;;-3.90;99.90;;;;;;5008555;28;20037;-58
2022/12/15 14:23:42;;;;;;;362.55;37.30;;;-3.90;99.90;;;;;;5008880;28;20033;-58
2022/12/15 14:26:11;;;;;;;189.20;35.35;;;-4.00;99.90;;;;;;5008335;28;20048;-57
2022/12/15 14:28:41;;;;;;;129.18;35.72;;;-4.10;99.90;;;;;;5008222;28;20116;-57
2022/12/15 14:31:27;;;;;;;305.77;37.13;;;-4.20;99.90;;;;;;5008617;28;20104;-58
2022/12/15 14:34:05;;;;;;;180.02;36.10;;;-4.30;99.90;;;;;;5008752;28;20026;-57
2022/12/15 14:36:32;;;;;;;214.15;35.08;;;-4.40;99.90;;;;;;5009207;28;20028;-57
2022/12/15 14:39:01;;;;;;;190.40;32.13;;;-4.40;99.90;;;;;;5007818;28;20482;-59
2022/12/15 14:41:30;;;;;;;160.45;32.95;;;-4.50;99.90;;;;;;5008860;28;20409;-58
2022/12/15 14:44:03;;;;;;;136.40;33.60;;;-4.70;99.90;;;;;;5007897;28;20148;-58
2022/12/15 14:46:29;;;;;;;197.75;33.83;;;-4.80;99.90;;;;;;5008525;28;20033;-56
2022/12/15 14:49:01;;;;;;;180.90;32.65;;;-4.90;99.90;;;;;;5008662;28;20018;-56
2022/12/15 14:51:30;;;;;;;163.07;33.33;;;-5.00;99.90;;;;;;5006698;28;20052;-59
2022/12/15 14:53:56;;;;;;;190.20;33.03;;;-5.00;99.90;;;;;;5007484;28;20025;-58
2022/12/15 14:56:29;;;;;;;337.52;36.28;;;-5.10;99.90;;;;;;5007563;28;20038;-57
2022/12/15 14:59:03;;;;;;;322.00;33.75;;;-5.20;99.90;;;;;;5006959;28;20022;-55
2022/12/15 15:01:39;;;;;;;276.52;34.72;;;-5.10;99.90;;;;;;5006624;28;20026;-58
2022/12/15 15:04:27;;;;;;;342.55;35.55;;;-5.20;99.90;;;;;;5008217;28;20049;-60
2022/12/15 15:06:59;;;;;;;95.22;27.27;;;-5.20;99.90;;;;;;4994079;28;20048;-58
2022/12/15 15:09:39;;;;;;;163.07;36.55;;;-5.30;99.90;;;;;;5007708;28;20017;-58
2022/12/15 15:12:11;;;;;;;172.30;30.92;;;-5.30;99.90;;;;;;5005652;28;20030;-58
2022/12/15 15:14:48;;;;;;;201.27;37.75;;;-5.30;99.90;;;;;;5005837;28;20036;-58